createdAt,value
2023-04-08T00:02:01.688Z,80.37
2023-04-08T00:04:29.514Z,80.13
2023-04-08T00:06:57.754Z,80.15
2023-04-08T00:09:25.610Z,80.13
2023-04-08T00:11:53.872Z,80.08
2023-04-08T00:14:21.614Z,80.41
2023-04-08T00:16:49.602Z,80.32
2023-04-08T00:19:17.320Z,79.95
2023-04-08T00:21:44.982Z,79.78
2023-04-08T00:24:13.127Z,79.79
2023-04-08T00:26:40.948Z,80.41
2023-04-08T00:29:08.704Z,80.38
2023-04-08T00:31:36.806Z,80.05
2023-04-08T00:34:04.530Z,79.50
2023-04-08T00:36:32.455Z,78.92
2023-04-08T00:39:00.261Z,79.02
2023-04-08T00:41:28.101Z,78.93
2023-04-08T00:43:55.740Z,78.91
2023-04-08T00:46:23.544Z,78.75
2023-04-08T00:48:51.392Z,79.06
2023-04-08T00:51:19.884Z,78.86
2023-04-08T00:53:47.698Z,79.07
2023-04-08T00:56:15.414Z,78.83
2023-04-08T00:58:43.286Z,79.23
2023-04-08T01:01:20.021Z,79.28
2023-04-08T01:03:56.103Z,79.51
2023-04-08T01:06:47.071Z,79.72
2023-04-08T01:09:23.624Z,80.16
2023-04-08T01:11:53.835Z,80.12
2023-04-08T01:14:27.039Z,79.96
2023-04-08T01:17:00.200Z,79.73
2023-04-08T01:19:35.867Z,79.71
2023-04-08T01:22:19.980Z,79.92
2023-04-08T01:24:51.213Z,80.07
2023-04-08T01:27:19.490Z,80.44
2023-04-08T01:29:49.205Z,80.80
2023-04-08T01:32:17.338Z,80.98
2023-04-08T01:34:45.679Z,81.28
2023-04-08T01:37:15.448Z,81.35
2023-04-08T01:39:44.663Z,81.27
2023-04-08T01:42:13.741Z,81.56
2023-04-08T01:44:42.743Z,81.63
2023-04-08T01:47:13.442Z,81.94
2023-04-08T01:49:42.891Z,82.12
2023-04-08T01:52:11.674Z,82.17
2023-04-08T01:54:39.493Z,82.60
2023-04-08T01:57:12.325Z,82.94
2023-04-08T01:59:41.733Z,83.32
2023-04-08T02:02:11.163Z,83.55
2023-04-08T02:04:39.140Z,83.77
2023-04-08T02:07:07.121Z,84.12
2023-04-08T02:09:34.772Z,84.41
2023-04-08T02:12:02.681Z,84.88
2023-04-08T02:14:31.361Z,85.15
2023-04-08T02:17:47.253Z,85.41
2023-04-08T02:20:21.897Z,85.97
2023-04-08T02:23:09.648Z,86.38
2023-04-08T02:25:41.586Z,86.60
2023-04-08T02:28:11.594Z,86.97
2023-04-08T02:30:43.388Z,87.34
2023-04-08T02:33:14.213Z,88.03
2023-04-08T02:35:42.894Z,88.28
2023-04-08T02:38:11.272Z,88.43
2023-04-08T02:40:39.164Z,88.45
2023-04-08T02:43:07.330Z,88.66
2023-04-08T02:45:41.462Z,88.91
2023-04-08T02:48:09.651Z,89.26
2023-04-08T02:50:37.836Z,89.49
2023-04-08T02:53:05.887Z,89.63
2023-04-08T02:55:33.571Z,89.63
2023-04-08T02:58:01.616Z,89.62
2023-04-08T03:00:32.508Z,89.76
2023-04-08T03:03:00.612Z,90.09
2023-04-08T03:05:28.526Z,90.18
2023-04-08T03:07:58.377Z,90.40
2023-04-08T03:10:26.564Z,90.46
2023-04-08T03:12:54.280Z,90.50
2023-04-08T03:15:22.017Z,90.73
2023-04-08T03:17:49.799Z,90.88
2023-04-08T03:20:17.602Z,90.96
2023-04-08T03:22:45.831Z,91.12
2023-04-08T03:25:13.968Z,91.06
2023-04-08T03:27:41.662Z,91.22
2023-04-08T03:30:10.152Z,91.46
2023-04-08T03:32:37.972Z,91.49
2023-04-08T03:35:06.277Z,91.62
2023-04-08T03:37:34.027Z,91.86
2023-04-08T03:40:01.937Z,91.95
2023-04-08T03:42:29.932Z,92.03
2023-04-08T03:44:58.600Z,92.20
2023-04-08T03:47:27.264Z,92.44
2023-04-08T03:49:54.980Z,92.39
2023-04-08T03:52:23.040Z,92.53
2023-04-08T03:54:50.993Z,92.43
2023-04-08T03:57:18.731Z,92.48
2023-04-08T03:59:46.514Z,92.50
2023-04-08T04:02:14.323Z,92.51
2023-04-08T04:04:42.088Z,92.62
2023-04-08T04:07:09.913Z,92.73
2023-04-08T04:09:37.601Z,92.80
2023-04-08T04:12:05.586Z,92.93
2023-04-08T04:14:33.416Z,92.93
2023-04-08T04:17:01.065Z,92.95
2023-04-08T04:19:32.063Z,92.79
2023-04-08T04:21:59.912Z,93.04
2023-04-08T04:24:27.649Z,92.78
2023-04-08T04:26:55.479Z,92.79
2023-04-08T04:29:23.385Z,93.06
2023-04-08T04:31:51.270Z,93.06
2023-04-08T04:34:19.142Z,93.42
2023-04-08T04:36:46.857Z,93.43
2023-04-08T04:39:14.676Z,93.60
2023-04-08T04:41:42.449Z,93.64
2023-04-08T04:44:10.266Z,93.67
2023-04-08T04:46:37.952Z,93.73
2023-04-08T04:49:06.134Z,93.74
2023-04-08T04:51:33.953Z,93.71
2023-04-08T04:54:01.717Z,93.48
2023-04-08T04:56:29.401Z,93.33
2023-04-08T04:58:57.109Z,93.04
2023-04-08T05:01:24.837Z,92.88
2023-04-08T05:03:52.596Z,92.52
2023-04-08T05:06:20.523Z,92.29
2023-04-08T05:08:48.429Z,91.71
2023-04-08T05:11:18.465Z,89.41
2023-04-08T05:13:46.164Z,87.16
2023-04-08T05:16:14.073Z,84.75
2023-04-08T05:18:42.045Z,81.39
2023-04-08T05:21:09.921Z,78.85
2023-04-08T05:23:37.808Z,75.91
2023-04-08T05:26:08.947Z,72.96
2023-04-08T05:28:36.672Z,70.81
2023-04-08T05:31:04.515Z,68.33
2023-04-08T05:33:32.276Z,65.67
2023-04-08T05:35:59.959Z,63.12
2023-04-08T05:38:27.773Z,58.58
2023-04-08T05:40:56.306Z,57.16
2023-04-08T05:43:25.019Z,55.26
2023-04-08T05:45:53.654Z,54.20
2023-04-08T05:48:21.654Z,53.00
2023-04-08T05:50:49.880Z,51.63
2023-04-08T05:53:18.309Z,50.76
2023-04-08T05:55:46.576Z,49.59
2023-04-08T05:58:16.263Z,48.55
2023-04-08T06:00:44.657Z,47.19
2023-04-08T06:03:13.000Z,46.42
2023-04-08T06:05:41.718Z,45.86
2023-04-08T06:08:09.986Z,45.52
2023-04-08T06:10:38.497Z,45.28
2023-04-08T06:13:06.806Z,44.77
2023-04-08T06:15:36.930Z,44.49
2023-04-08T06:18:05.529Z,43.48
2023-04-08T06:20:33.853Z,43.57
2023-04-08T06:23:02.020Z,44.02
2023-04-08T06:25:30.291Z,43.59
2023-04-08T06:27:58.594Z,43.33
2023-04-08T06:30:26.927Z,43.64
2023-04-08T06:32:54.973Z,44.20
2023-04-08T06:35:23.232Z,44.02
2023-04-08T06:37:51.598Z,43.81
2023-04-08T06:40:19.898Z,43.87
2023-04-08T06:42:48.655Z,44.30
2023-04-08T06:45:17.094Z,44.97
2023-04-08T06:47:45.592Z,45.24
2023-04-08T06:50:13.792Z,45.70
2023-04-08T06:52:41.942Z,44.95
2023-04-08T06:55:10.143Z,45.17
2023-04-08T06:57:38.850Z,45.68
2023-04-08T07:00:07.983Z,45.38
2023-04-08T07:02:36.382Z,45.53
2023-04-08T07:05:06.355Z,46.90
2023-04-08T07:07:34.659Z,48.34
2023-04-08T07:10:03.105Z,47.46
2023-04-08T07:12:31.317Z,46.23
2023-04-08T07:14:59.880Z,46.31
2023-04-08T07:17:28.580Z,45.13
2023-04-08T07:19:57.220Z,45.53
2023-04-08T07:22:26.137Z,44.94
2023-04-08T07:24:54.657Z,44.29
2023-04-08T07:27:23.005Z,44.52
2023-04-08T07:29:58.443Z,44.74
2023-04-08T07:32:27.736Z,43.73
2023-04-08T07:34:56.403Z,43.89
2023-04-08T07:37:24.715Z,44.10
2023-04-08T07:39:53.574Z,45.34
2023-04-08T07:42:22.375Z,45.27
2023-04-08T07:44:50.734Z,45.08
2023-04-08T07:47:20.954Z,44.48
2023-04-08T07:49:49.164Z,44.82
2023-04-08T07:52:18.024Z,45.23
2023-04-08T07:54:46.787Z,45.99
2023-04-08T07:57:15.266Z,45.33
2023-04-08T07:59:43.927Z,43.62
2023-04-08T08:02:12.553Z,43.26
2023-04-08T08:04:41.844Z,42.71
2023-04-08T08:07:10.232Z,42.39
2023-04-08T08:09:38.383Z,42.85
2023-04-08T08:12:06.653Z,41.86
2023-04-08T08:14:35.131Z,41.21
2023-04-08T08:17:04.532Z,41.70
2023-04-08T08:19:37.465Z,41.55
2023-04-08T08:22:05.857Z,40.34
2023-04-08T08:24:33.991Z,39.67
2023-04-08T08:27:05.125Z,38.81
2023-04-08T08:29:34.614Z,41.00
2023-04-08T08:32:04.476Z,40.99
2023-04-08T08:34:33.952Z,40.19
2023-04-08T08:37:02.481Z,39.75
2023-04-08T08:39:31.300Z,37.55
2023-04-08T08:41:59.784Z,38.02
2023-04-08T08:44:31.229Z,38.72
2023-04-08T08:47:01.859Z,37.87
2023-04-08T08:49:30.133Z,36.94
2023-04-08T08:52:00.549Z,36.04
2023-04-08T08:54:29.202Z,36.64
2023-04-08T08:56:57.988Z,36.83
2023-04-08T08:59:26.260Z,37.45
2023-04-08T09:01:54.711Z,36.80
2023-04-08T09:04:23.268Z,35.96
2023-04-08T09:07:10.195Z,34.90
2023-04-08T09:10:04.529Z,33.79
2023-04-08T09:12:33.292Z,33.32
2023-04-08T09:15:06.503Z,32.90
2023-04-08T09:17:38.417Z,32.78
2023-04-08T09:20:16.937Z,33.83
2023-04-08T09:22:54.680Z,34.47
2023-04-08T09:25:28.252Z,35.54
2023-04-08T09:27:56.834Z,37.20
2023-04-08T09:30:28.911Z,36.28
2023-04-08T09:33:45.849Z,34.47
2023-04-08T09:36:18.723Z,33.19
2023-04-08T09:38:56.600Z,33.94
2023-04-08T09:41:28.617Z,33.78
2023-04-08T09:44:27.264Z,31.94
2023-04-08T09:47:32.932Z,30.57
2023-04-08T09:50:28.187Z,31.42
2023-04-08T09:53:30.330Z,31.67
2023-04-08T09:56:00.539Z,32.71
2023-04-08T09:58:34.370Z,33.82
2023-04-08T10:01:03.314Z,32.19
2023-04-08T10:03:50.527Z,31.93
2023-04-08T10:06:23.161Z,31.10
2023-04-08T10:08:51.719Z,32.27
2023-04-08T10:11:20.213Z,31.34
2023-04-08T10:14:05.731Z,31.40
2023-04-08T10:16:36.107Z,31.24
2023-04-08T10:19:39.112Z,30.13
2023-04-08T10:22:29.888Z,30.22
2023-04-08T10:25:19.885Z,30.86
2023-04-08T10:27:50.201Z,31.10
2023-04-08T10:30:27.775Z,29.72
2023-04-08T10:32:57.698Z,28.95
2023-04-08T10:35:42.775Z,28.18
2023-04-08T10:38:13.370Z,27.64
2023-04-08T10:40:43.606Z,27.52
2023-04-08T10:43:13.651Z,27.53
2023-04-08T10:45:43.143Z,27.87
2023-04-08T10:48:18.104Z,27.87
2023-04-08T10:51:12.620Z,27.60
2023-04-08T10:53:43.491Z,27.31
2023-04-08T10:56:15.824Z,26.22
2023-04-08T10:58:52.572Z,27.56
2023-04-08T11:01:34.989Z,27.22
2023-04-08T11:04:12.462Z,28.00
2023-04-08T11:09:04.494Z,28.11
2023-04-08T11:11:32.536Z,28.65
2023-04-08T11:14:02.042Z,26.92
2023-04-08T11:16:31.186Z,26.73
2023-04-08T11:18:59.075Z,26.18
2023-04-08T11:21:30.102Z,26.06
2023-04-08T11:23:58.804Z,25.49
2023-04-08T11:26:27.707Z,25.10
2023-04-08T11:28:57.626Z,24.85
2023-04-08T11:31:26.259Z,25.49
2023-04-08T11:33:58.526Z,25.83
2023-04-08T11:36:29.137Z,25.04
2023-04-08T11:38:57.253Z,25.22
2023-04-08T11:41:25.260Z,25.05
2023-04-08T11:43:57.131Z,24.62
2023-04-08T11:46:25.625Z,24.45
2023-04-08T11:49:02.009Z,24.65
2023-04-08T11:51:32.116Z,23.97
2023-04-08T11:54:01.066Z,24.16
2023-04-08T11:56:30.812Z,24.23
2023-04-08T11:58:58.683Z,23.13
2023-04-08T12:01:27.156Z,24.23
2023-04-08T12:03:59.578Z,24.37
2023-04-08T12:06:28.538Z,23.86
2023-04-08T12:08:56.797Z,22.68
2023-04-08T12:11:25.021Z,23.09
2023-04-08T12:13:53.900Z,23.55
2023-04-08T12:16:21.992Z,23.79
2023-04-08T12:18:50.438Z,24.20
2023-04-08T12:21:18.416Z,23.14
2023-04-08T12:23:46.435Z,23.48
2023-04-08T12:26:14.909Z,23.71
2023-04-08T12:28:42.668Z,24.73
2023-04-08T12:31:10.742Z,25.99
2023-04-08T12:33:38.558Z,27.68
2023-04-08T12:36:06.858Z,28.40
2023-04-08T12:38:34.965Z,27.32
2023-04-08T12:41:02.826Z,26.52
2023-04-08T12:43:32.759Z,25.49
2023-04-08T12:46:01.983Z,26.24
2023-04-08T12:48:30.223Z,26.93
2023-04-08T12:50:59.162Z,26.93
2023-04-08T12:53:27.017Z,27.10
2023-04-08T12:55:57.781Z,27.38
2023-04-08T12:58:25.956Z,27.66
2023-04-08T13:00:55.620Z,26.88
2023-04-08T13:03:24.617Z,27.42
2023-04-08T13:05:52.665Z,28.03
2023-04-08T13:08:20.509Z,28.48
2023-04-08T13:10:48.501Z,28.12
2023-04-08T13:13:16.322Z,27.59
2023-04-08T13:15:44.167Z,27.06
2023-04-08T13:18:12.075Z,27.88
2023-04-08T13:20:40.009Z,28.50
2023-04-08T13:23:08.472Z,28.93
2023-04-08T13:25:36.308Z,29.57
2023-04-08T13:28:04.371Z,29.88
2023-04-08T13:30:32.142Z,30.02
2023-04-08T13:33:00.027Z,30.68
2023-04-08T13:35:27.941Z,30.92
2023-04-08T13:37:55.741Z,31.42
2023-04-08T13:40:24.279Z,32.57
2023-04-08T13:42:52.125Z,32.73
2023-04-08T13:45:20.502Z,33.12
2023-04-08T13:47:48.618Z,33.14
2023-04-08T13:50:16.339Z,33.75
2023-04-08T13:52:44.047Z,33.92
2023-04-08T13:55:11.889Z,34.73
2023-04-08T13:57:39.658Z,34.83
2023-04-08T14:00:08.262Z,35.54
2023-04-08T14:02:36.541Z,35.31
2023-04-08T14:05:04.762Z,35.38
2023-04-08T14:07:32.855Z,35.94
2023-04-08T14:10:00.682Z,37.03
2023-04-08T14:12:28.423Z,37.07
2023-04-08T14:15:13.505Z,37.40
2023-04-08T14:17:42.225Z,38.12
2023-04-08T14:20:10.321Z,38.11
2023-04-08T14:22:38.073Z,38.46
2023-04-08T14:25:06.329Z,39.31
2023-04-08T14:27:34.261Z,40.04
2023-04-08T14:30:04.519Z,39.74
2023-04-08T14:32:32.585Z,39.86
2023-04-08T14:35:00.545Z,39.78
2023-04-08T14:37:28.577Z,39.06
2023-04-08T14:39:56.670Z,39.55
2023-04-08T14:42:24.418Z,39.16
2023-04-08T14:44:52.414Z,39.03
2023-04-08T14:47:20.418Z,38.52
2023-04-08T14:49:48.858Z,38.13
2023-04-08T14:52:16.672Z,37.94
2023-04-08T14:54:45.308Z,37.31
2023-04-08T14:57:13.308Z,37.38
2023-04-08T14:59:41.176Z,38.05
2023-04-08T15:02:09.291Z,38.06
2023-04-08T15:04:37.160Z,38.46
2023-04-08T15:07:05.474Z,38.63
2023-04-08T15:09:33.562Z,38.64
2023-04-08T15:12:01.935Z,39.11
2023-04-08T15:14:29.702Z,39.56
2023-04-08T15:16:57.444Z,39.45
2023-04-08T15:19:25.320Z,39.75
2023-04-08T15:21:53.054Z,39.58
2023-04-08T15:24:21.025Z,39.81
2023-04-08T15:26:48.803Z,40.28
2023-04-08T15:29:17.110Z,40.49
2023-04-08T15:31:44.825Z,41.12
2023-04-08T15:34:12.590Z,41.24
2023-04-08T15:36:40.475Z,41.89
2023-04-08T15:39:08.232Z,42.45
2023-04-08T15:41:36.118Z,41.97
2023-04-08T15:44:03.916Z,42.77
2023-04-08T15:46:31.921Z,43.74
2023-04-08T15:49:01.393Z,43.56
2023-04-08T15:51:29.475Z,43.67
2023-04-08T15:53:57.445Z,44.24
2023-04-08T15:56:27.024Z,44.28
2023-04-08T15:58:55.023Z,44.71
2023-04-08T16:01:22.975Z,44.77
2023-04-08T16:03:51.073Z,44.31
2023-04-08T16:06:18.998Z,44.21
2023-04-08T16:08:47.434Z,44.43
2023-04-08T16:11:15.539Z,44.87
2023-04-08T16:13:43.424Z,44.82
2023-04-08T16:16:12.456Z,44.82
2023-04-08T16:18:41.808Z,45.04
2023-04-08T16:21:09.958Z,45.16
2023-04-08T16:23:38.414Z,44.57
2023-04-08T16:26:08.010Z,44.54
2023-04-08T16:28:37.192Z,44.71
2023-04-08T16:31:05.142Z,44.79
2023-04-08T16:33:33.457Z,44.96
2023-04-08T16:36:01.768Z,44.82
2023-04-08T16:38:29.849Z,45.21
2023-04-08T16:40:59.119Z,44.91
2023-04-08T16:43:28.064Z,45.00
2023-04-08T16:45:56.306Z,45.38
2023-04-08T16:48:24.536Z,45.21
2023-04-08T16:50:52.643Z,45.17
2023-04-08T16:53:20.964Z,45.33
2023-04-08T16:55:48.991Z,45.03
2023-04-08T16:58:17.219Z,45.00
2023-04-08T17:00:45.714Z,45.31
2023-04-08T17:03:14.035Z,45.17
2023-04-08T17:05:42.486Z,45.40
2023-04-08T17:08:10.713Z,45.47
2023-04-08T17:10:38.875Z,46.41
2023-04-08T17:13:07.081Z,46.68
2023-04-08T17:15:36.546Z,46.91
2023-04-08T17:18:04.898Z,47.01
2023-04-08T17:20:33.303Z,46.73
2023-04-08T17:23:01.576Z,47.13
2023-04-08T17:25:29.661Z,47.35
2023-04-08T17:27:58.344Z,48.14
2023-04-08T17:30:26.719Z,48.34
2023-04-08T17:32:56.592Z,48.77
2023-04-08T17:35:25.174Z,49.44
2023-04-08T17:37:53.369Z,49.61
2023-04-08T17:40:22.171Z,50.22
2023-04-08T17:42:50.755Z,51.23
2023-04-08T17:45:19.032Z,51.45
2023-04-08T17:47:47.672Z,51.18
2023-04-08T17:50:16.097Z,51.31
2023-04-08T17:52:48.550Z,51.99
2023-04-08T17:55:16.996Z,53.23
2023-04-08T17:57:45.307Z,54.34
2023-04-08T18:00:13.806Z,55.88
2023-04-08T18:02:42.763Z,57.72
2023-04-08T18:05:12.579Z,59.51
2023-04-08T18:07:40.417Z,60.26
2023-04-08T18:10:09.984Z,61.60
2023-04-08T18:12:37.970Z,63.60
2023-04-08T18:15:06.474Z,64.99
2023-04-08T18:17:35.454Z,66.84
2023-04-08T18:20:03.667Z,68.03
2023-04-08T18:22:31.525Z,69.47
2023-04-08T18:24:59.269Z,70.71
2023-04-08T18:27:27.416Z,72.51
2023-04-08T18:29:55.329Z,74.28
2023-04-08T18:32:23.130Z,76.20
2023-04-08T18:39:20.439Z,79.66
2023-04-08T18:41:48.485Z,80.69
2023-04-08T18:44:16.563Z,81.40
2023-04-08T18:46:45.766Z,82.88
2023-04-08T18:49:15.137Z,83.36
2023-04-08T18:56:05.070Z,87.07
2023-04-08T18:58:33.614Z,87.34
2023-04-08T19:01:06.909Z,87.43
2023-04-08T19:03:36.376Z,87.77
2023-04-08T19:06:08.311Z,87.78
2023-04-08T19:08:36.562Z,88.54
2023-04-08T19:11:05.291Z,88.71
2023-04-08T19:13:33.329Z,88.69
2023-04-08T19:16:01.144Z,89.05
2023-04-08T19:18:29.115Z,89.25
2023-04-08T19:20:57.024Z,89.13
2023-04-08T19:23:24.824Z,89.52
2023-04-08T19:25:53.051Z,89.60
2023-04-08T19:28:21.673Z,89.61
2023-04-08T19:30:50.939Z,89.99
2023-04-08T19:33:19.527Z,90.20
2023-04-08T19:35:48.780Z,90.38
2023-04-08T19:38:16.759Z,89.98
2023-04-08T19:40:44.720Z,89.91
2023-04-08T19:43:12.569Z,90.05
2023-04-08T19:45:41.486Z,90.57
2023-04-08T19:48:09.372Z,90.50
2023-04-08T19:50:38.119Z,90.13
2023-04-08T19:53:06.157Z,89.80
2023-04-08T19:55:37.374Z,90.25
2023-04-08T19:58:05.842Z,90.53
2023-04-08T20:00:33.647Z,90.41
2023-04-08T20:03:02.078Z,90.99
2023-04-08T20:05:30.643Z,90.94
2023-04-08T20:07:58.362Z,91.11
2023-04-08T20:10:26.117Z,91.26
2023-04-08T20:12:54.049Z,91.21
2023-04-08T20:15:25.208Z,91.13
2023-04-08T20:17:54.301Z,91.54
2023-04-08T20:26:41.965Z,93.66
2023-04-08T20:30:25.668Z,94.13
2023-04-08T20:33:53.620Z,94.56
2023-04-08T20:36:24.879Z,94.68
2023-04-08T20:38:55.262Z,94.68
2023-04-08T20:41:44.525Z,94.61
2023-04-08T20:44:41.669Z,94.51
2023-04-08T20:47:12.523Z,94.91
2023-04-08T20:50:30.694Z,95.13
2023-04-08T20:53:52.543Z,96.09
2023-04-08T20:57:31.254Z,96.44
2023-04-08T21:01:04.180Z,97.03
2023-04-08T21:04:47.572Z,97.66
2023-04-08T21:08:36.885Z,98.01
2023-04-08T21:12:27.072Z,97.70
2023-04-08T21:15:45.516Z,97.22
2023-04-08T21:19:28.980Z,97.98
2023-04-08T21:23:25.298Z,98.31
2023-04-08T21:26:52.868Z,98.44
2023-04-08T21:30:21.935Z,98.54
2023-04-08T21:34:23.729Z,99.02
2023-04-08T21:37:38.429Z,99.49
2023-04-08T21:41:19.597Z,99.86
2023-04-08T21:45:04.828Z,99.99
2023-04-08T21:48:37.042Z,100.00
2023-04-08T22:02:12.010Z,100.00
2023-04-08T22:06:02.503Z,100.00
2023-04-08T22:08:58.511Z,100.00
2023-04-08T22:12:36.852Z,100.00
2023-04-08T22:27:28.461Z,100.00
2023-04-08T22:30:36.023Z,100.00
2023-04-08T22:33:58.809Z,100.00
2023-04-08T22:37:36.048Z,100.00
2023-04-08T22:41:25.324Z,100.00
2023-04-08T22:45:12.400Z,100.00
2023-04-08T22:48:29.052Z,100.00
2023-04-08T22:52:08.492Z,100.00
2023-04-08T22:55:45.354Z,100.00
2023-04-08T22:59:41.616Z,100.00
2023-04-08T23:02:58.407Z,100.00
2023-04-08T23:06:47.112Z,100.00
2023-04-08T23:10:18.471Z,100.00
2023-04-08T23:13:58.058Z,100.00
2023-04-08T23:17:40.834Z,100.00
2023-04-08T23:21:16.352Z,100.00
2023-04-08T23:25:04.815Z,100.00
2023-04-08T23:39:15.856Z,99.29
2023-04-08T23:42:20.512Z,99.50
2023-04-08T23:45:42.982Z,99.63
2023-04-08T23:50:36.197Z,99.81
